Data for 02/27/2016

Time Sea-Level Adjusted Pressure Absolute Pressure Temperature Relative Humidity Dew Point   
(mb) (inHg) (mb) (inHg) (C) (F) (%) (C) (F)
00:05 1016 30 846 24.98 5.3 41.5 37 -8.4 16.9
00:10 1016 30 846 24.98 5.5 42 36 -8.5 16.6
00:15 1016 30 846 24.98 5.7 42.2 36 -8.3 17
00:20 1016 30 846 24.98 5.6 42 36 -8.5 16.7
00:25 1016 30 846 24.98 5.2 41.4 37 -8.3 17.1
00:30 1016 30 846 24.98 5.1 41.2 37 -8.3 17.1
00:35 1016 30 845 24.95 4.3 39.8 42 -7.5 18.5
00:40 1016 30 845 24.95 4 39.2 38 -8.9 16
00:45 1016 30 845 24.95 4.6 40.3 38 -8.4 16.9
00:50 1016 30 845 24.95 4.5 40.1 41 -7.8 18
00:55 1016 30 845 24.95 4.4 39.9 40 -8.2 17.3
01:00 1016 30 845 24.95 4 39.2 43 -7.5 18.5
01:05 1016 30 845 24.95 3.6 38.4 44 -7.5 18.5
01:10 1016 30 845 24.95 3.4 38.1 44 -7.7 18.2
01:15 1016 30 845 24.95 3.6 38.5 45 -7.4 18.8
01:20 1016 30 845 24.95 3.6 38.4 44 -7.5 18.6
01:25 1016 30 845 24.95 4 39.2 43 -7.5 18.6
01:30 1016 30 845 24.95 4.2 39.6 44 -7.1 19.3
01:35 1016 30 845 24.95 4.1 39.5 46 -6.6 20.1
01:40 1016 30 845 24.95 4 39.2 45 -6.8 19.7
01:45 1016 30 845 24.95 4.3 39.7 43 -7.1 19.2
01:50 1015 29.97 845 24.95 4.9 40.8 42 -6.9 19.5
01:55 1016 30 845 24.95 4.9 40.9 43 -6.8 19.8
02:00 1015 29.97 845 24.95 4.5 40.1 44 -6.8 19.7
02:05 1015 29.97 845 24.95 4.5 40.2 44 -6.6 20.1
02:10 1015 29.97 844 24.92 4.7 40.4 43 -7 19.5
02:15 1015 29.97 844 24.92 5 40.9 41 -7.2 19.1
02:20 1015 29.97 845 24.95 5.3 41.6 40 -7.2 19
02:25 1015 29.97 844 24.92 5.3 41.6 40 -7.3 18.8
02:30 1015 29.97 844 24.92 5.3 41.5 41 -7 19.3
02:35 1015 29.97 844 24.92 5.1 41.2 41 -6.9 19.5
02:40 1015 29.97 844 24.92 5.1 41.2 41 -7.1 19.2
02:45 1015 29.97 844 24.92 5.2 41.4 40 -7.3 18.8
02:50 1015 29.97 844 24.92 5 41.1 41 -7.1 19.1
02:55 1015 29.97 844 24.92 5.4 41.6 40 -7.2 19
03:00 1015 29.97 844 24.92 5.8 42.4 40 -7 19.5
03:05 1015 29.97 844 24.92 5.7 42.3 39 -7.2 19.1
03:10 1015 29.97 844 24.92 5.6 42.1 40 -6.8 19.7
03:15 1015 29.97 844 24.92 5.2 41.4 41 -6.9 19.7
03:20 1015 29.97 844 24.92 5 41.1 40 -7.3 18.8
03:25 1015 29.97 844 24.92 4.9 40.9 41 -7.4 18.7
03:30 1015 29.97 844 24.92 4.8 40.6 43 -6.6 20.1
03:35 1015 29.97 844 24.92 4.5 40.1 42 -7.3 18.8
03:40 1015 29.97 844 24.92 4.8 40.7 42 -7.1 19.1
03:45 1015 29.97 844 24.92 5.1 41.2 40 -7.3 18.9
03:50 1015 29.97 844 24.92 5.6 42.1 39 -7.2 19.1
03:55 1015 29.97 844 24.92 5.6 42 40 -6.8 19.7
04:00 1015 29.97 844 24.92 5.2 41.4 43 -6.4 20.5
04:05 1015 29.97 844 24.92 4.4 39.9 47 -6 21.1
04:10 1014 29.94 844 24.92 4.5 40.1 45 -6.4 20.5
04:15 1014 29.94 844 24.92 4.5 40.1 45 -6.4 20.5
04:20 1014 29.94 843 24.89 4.7 40.4 43 -6.9 19.6
04:25 1014 29.94 843 24.89 5.1 41.2 43 -6.6 20.2
04:30 1014 29.94 843 24.89 4.8 40.6 45 -6.1 21
04:35 1014 29.94 843 24.89 4.4 39.9 45 -6.4 20.5
04:40 1014 29.94 843 24.89 4.6 40.4 45 -6.4 20.5
04:45 1014 29.94 843 24.89 4.7 40.5 44 -6.6 20.2
04:50 1014 29.94 843 24.89 5 41.1 43 -6.6 20.1
04:55 1014 29.94 843 24.89 5 41.1 42 -6.7 20
05:00 1014 29.94 843 24.89 4.9 40.7 42 -6.9 19.6
05:05 1014 29.94 843 24.89 4.9 40.8 42 -7 19.5
05:10 1014 29.94 843 24.89 5.5 41.8 38 -7.8 17.9
05:15 1014 29.94 843 24.89 5.4 41.7 43 -6.2 20.8
05:20 1014 29.94 843 24.89 4.5 40.1 44 -6.8 19.7
05:25 1014 29.94 843 24.89 4.4 39.9 45 -6.6 20.1
05:30 1014 29.94 843 24.89 4.4 39.9 45 -6.4 20.4
05:35 1014 29.94 843 24.89 4.3 39.7 45 -6.6 20.1
05:40 1014 29.94 843 24.89 4.6 40.3 45 -6.4 20.5
05:45 1014 29.94 843 24.89 4.5 40 46 -6.3 20.7
05:50 1014 29.94 843 24.89 4.3 39.8 48 -5.8 21.6
05:55 1014 29.94 843 24.89 4.2 39.5 47 -6.1 21
06:00 1014 29.94 843 24.89 4.2 39.5 47 -6.1 20.9
06:05 1014 29.94 843 24.89 4.6 40.2 42 -7.3 18.9
06:10 1014 29.94 843 24.89 5.3 41.6 39 -7.4 18.7
06:15 1013 29.91 843 24.89 5.9 42.6 37 -7.8 17.9
06:20 1013 29.91 843 24.89 6 42.8 37 -7.5 18.5
06:25 1013 29.91 843 24.89 6.1 42.9 39 -7 19.4
06:30 1013 29.91 842 24.86 5.5 42 41 -6.8 19.8
06:35 1013 29.91 842 24.86 5.4 41.7 41 -6.9 19.5
06:40 1013 29.91 842 24.86 5.5 41.9 39 -7.5 18.5
06:45 1013 29.91 842 24.86 5.8 42.5 42 -6 21.1
06:50 1013 29.91 842 24.86 5.2 41.3 44 -6.2 20.8
06:55 1013 29.91 842 24.86 4.9 40.8 44 -6.4 20.4
07:00 1013 29.91 842 24.86 4.9 40.8 44 -6.4 20.5
07:05 1013 29.91 842 24.86 5.1 41.2 43 -6.5 20.3
07:10 1013 29.91 842 24.86 5.1 41.2 43 -6.5 20.3
07:15 1013 29.91 842 24.86 5 41.1 43 -6.5 20.3
07:20 1013 29.91 842 24.86 5 41 42 -6.7 19.9
07:25 1012 29.88 842 24.86 5.2 41.3 42 -6.6 20.1
07:30 1012 29.88 842 24.86 5.1 41.1 44 -6.3 20.7
07:35 1012 29.88 842 24.86 4.9 40.9 44 -6.4 20.4
07:40 1012 29.88 842 24.86 4.7 40.5 47 -5.6 21.9
07:45 1012 29.88 842 24.86 4.4 39.9 48 -5.8 21.5
07:50 1012 29.88 842 24.86 4.2 39.6 46 -6.5 20.3
07:55 1012 29.88 842 24.86 4.7 40.4 44 -6.7 20
08:00 1012 29.88 841 24.83 5 41 44 -6.4 20.5
08:05 1012 29.88 841 24.83 5 41 44 -6.2 20.9
08:10 1012 29.88 841 24.83 4.9 40.8 45 -6.1 21
08:15 1012 29.88 841 24.83 4.8 40.6 45 -6.3 20.7
08:20 1012 29.88 841 24.83 4.8 40.7 45 -6.1 21
08:25 1012 29.88 841 24.83 4.8 40.6 45 -6.2 20.9
08:30 1012 29.88 841 24.83 4.7 40.5 45 -6.2 20.9
08:35 1012 29.88 841 24.83 4.7 40.4 45 -6.1 21
08:40 1012 29.88 841 24.83 4.6 40.2 48 -5.6 21.9
08:45 1012 29.88 841 24.83 4 39.3 48 -5.9 21.5
08:50 1012 29.88 841 24.83 4.1 39.5 47 -6.1 21
08:55 1012 29.88 841 24.83 4.6 40.3 44 -6.6 20.2
09:00 1012 29.88 841 24.83 4.5 40.2 45 -6.3 20.7
09:05 1012 29.88 841 24.83 5.3 41.5 40 -7.1 19.2
09:10 1012 29.88 841 24.83 5.8 42.4 41 -6.4 20.4
09:15 1012 29.88 841 24.83 5.8 42.4 42 -6.2 20.8
09:20 1012 29.88 841 24.83 6 42.8 42 -6.1 21.1
09:25 1012 29.88 841 24.83 6.3 43.3 40 -6.4 20.5
09:30 1012 29.88 841 24.83 6.3 43.4 43 -5.4 22.3
09:35 1012 29.88 841 24.83 6.1 43 41 -6.1 21
09:40 1012 29.88 841 24.83 6.5 43.7 38 -6.8 19.8
09:45 1012 29.88 841 24.83 7.2 44.9 38 -6.1 21
09:50 1012 29.88 841 24.83 7.8 46 37 -6.1 21
09:55 1012 29.88 841 24.83 8.5 47.3 35 -6.2 20.8
10:00 1012 29.88 841 24.83 8.7 47.7 34 -6.3 20.6
10:05 1012 29.88 841 24.83 8.5 47.3 34 -6.4 20.4
10:10 1012 29.88 841 24.83 9 48.1 33 -6.5 20.2
10:15 1012 29.88 841 24.83 9.3 48.8 32 -6.4 20.4
10:20 1012 29.88 841 24.83 10.1 50.2 31 -6.1 21
10:25 1012 29.88 841 24.83 10.3 50.6 31 -5.9 21.4
10:30 1012 29.88 841 24.83 10 50 32 -6 21.1
10:35 1012 29.88 841 24.83 9.3 48.8 36 -5 23
10:40 1012 29.88 841 24.83 8.5 47.2 38 -4.9 23.1
10:45 1012 29.88 841 24.83 8.3 47 38 -5.2 22.6
10:50 1012 29.88 841 24.83 8.6 47.5 37 -5.3 22.4
10:55 1011 29.85 841 24.83 8.7 47.7 37 -5.2 22.7
11:00 1011 29.85 841 24.83 9 48.2 35 -5.7 21.7
11:05 1011 29.85 841 24.83 10.3 50.6 31 -6.2 20.9
11:10 1011 29.85 841 24.83 11.3 52.4 29 -5.9 21.4
11:15 1011 29.85 841 24.83 11.3 52.4 29 -5.9 21.4
11:20 1011 29.85 840 24.81 11.1 52 31 -5.4 22.3
11:25 1011 29.85 840 24.81 10.4 50.8 31 -5.7 21.7
11:30 1011 29.85 840 24.81 11 51.7 31 -5.3 22.4
11:35 1011 29.85 840 24.81 10.5 50.8 34 -4.8 23.4
11:40 1011 29.85 840 24.81 10.1 50.2 35 -4.7 23.6
11:45 1011 29.85 840 24.81 10.6 51 32 -5.4 22.4
11:50 1011 29.85 840 24.81 11.6 52.8 31 -4.8 23.3
11:55 1011 29.85 840 24.81 12 53.6 31 -4.8 23.4
12:00 1011 29.85 840 24.81 12.2 53.9 29 -5.1 22.7
12:05 1011 29.85 840 24.81 12.7 54.8 29 -5 23
12:10 1011 29.85 840 24.81 13.1 55.5 27 -5.2 22.6
12:15 1011 29.85 840 24.81 14 57.3 27 -4.8 23.3
12:20 1011 29.85 840 24.81 13.9 57.1 27 -4.6 23.7
12:25 1011 29.85 840 24.81 14.3 57.7 26 -4.9 23.3
12:30 1011 29.85 840 24.81 14.6 58.3 26 -4.5 23.9
12:35 1011 29.85 840 24.81 14.3 57.8 26 -4.8 23.4
12:40 1011 29.85 840 24.81 14.8 58.6 24 -5.6 21.9
12:45 1011 29.85 840 24.81 14.4 57.8 25 -5.6 22
12:50 1011 29.85 840 24.81 13.4 56.2 26 -5.7 21.7
12:55 1011 29.85 840 24.81 13.1 55.5 27 -5.2 22.6
13:00 1011 29.85 840 24.81 13.2 55.8 26 -5.7 21.7
13:05 1011 29.85 840 24.81 13.7 56.7 24 -6.4 20.4
13:10 1011 29.85 840 24.81 13.8 56.8 27 -5.1 22.8
13:15 1011 29.85 840 24.81 13.5 56.2 26 -5.4 22.3
13:20 1011 29.85 840 24.81 13.3 55.9 27 -5.3 22.4
13:25 1010 29.83 840 24.81 13.3 56 26 -5.6 22
13:30 1010 29.83 840 24.81 13.5 56.3 26 -5.5 22
13:35 1010 29.83 839 24.78 13.5 56.2 27 -5 23
13:40 1010 29.83 839 24.78 13.6 56.5 23 -6.9 19.6
13:45 1010 29.83 839 24.78 13.7 56.6 22 -7.6 18.4
13:50 1010 29.83 839 24.78 13.7 56.7 23 -6.8 19.7
13:55 1010 29.83 839 24.78 13.9 57 23 -7.1 19.2
14:00 1010 29.83 839 24.78 13.8 56.8 23 -6.8 19.7
14:05 1010 29.83 839 24.78 14.2 57.5 23 -6.8 19.7
14:10 1010 29.83 840 24.81 12.8 55.1 40 -0.2 31.6
14:15 1011 29.85 840 24.81 10.3 50.6 50 0.4 32.7
14:20 1011 29.85 840 24.81 9.3 48.7 53 0.1 32.2
14:25 1011 29.85 841 24.83 8.7 47.7 56 0.3 32.6
14:30 1012 29.88 841 24.83 8.4 47.1 56 0.2 32.3
14:35 1012 29.88 841 24.83 8.2 46.7 58 0.4 32.7
14:40 1012 29.88 841 24.83 7.7 45.9 58 0 32
14:45 1012 29.88 841 24.83 7.3 45.2 59 -0.2 31.7
14:50 1012 29.88 841 24.83 7.2 45 59 -0.1 31.7
14:55 1012 29.88 841 24.83 7.1 44.8 60 -0 31.9
15:00 1012 29.88 842 24.86 7 44.6 60 -0.1 31.8
15:05 1013 29.91 842 24.86 6.9 44.5 61 -0.1 31.8
15:10 1013 29.91 842 24.86 6.9 44.4 60 -0.3 31.5
15:15 1013 29.91 842 24.86 6.8 44.3 61 -0.1 31.9
15:20 1013 29.91 842 24.86 6.6 44 66 0.7 33.2
15:25 1013 29.91 842 24.86 6.3 43.4 68 0.9 33.6
15:30 1013 29.91 842 24.86 6.2 43.1 70 1.2 34.1
15:35 1013 29.91 842 24.86 6.1 42.9 70 1 33.9
15:40 1013 29.91 843 24.89 6.1 43 70 1 33.9
15:45 1013 29.91 843 24.89 6.2 43.2 69 1 33.8
15:50 1013 29.91 843 24.89 6.4 43.5 68 0.9 33.6
15:55 1013 29.91 843 24.89 6.5 43.7 68 1.1 33.9
16:00 1013 29.91 843 24.89 6.4 43.6 67 0.8 33.4
16:05 1013 29.91 843 24.89 6.3 43.4 68 0.8 33.4
16:10 1013 29.91 843 24.89 6.3 43.4 66 0.5 32.9
16:15 1013 29.91 843 24.89 6.4 43.6 66 0.5 32.9
16:20 1013 29.91 843 24.89 6.6 43.9 64 0.3 32.6
16:25 1013 29.91 843 24.89 6.4 43.5 67 0.7 33.3
16:30 1013 29.91 843 24.89 6.2 43.1 67 0.5 33
16:35 1014 29.94 843 24.89 6.3 43.3 64 0.1 32.1
16:40 1014 29.94 843 24.89 6.4 43.6 64 0 32.1
16:45 1014 29.94 843 24.89 6.5 43.7 63 0 32
16:50 1014 29.94 843 24.89 6.5 43.6 63 -0.1 31.9
16:55 1014 29.94 843 24.89 6.5 43.6 63 -0.2 31.7
17:00 1014 29.94 843 24.89 6.5 43.7 62 -0.1 31.7
17:05 1014 29.94 843 24.89 6.6 43.9 63 0.1 32.2
17:10 1014 29.94 843 24.89 6.8 44.3 60 -0.3 31.4
17:15 1014 29.94 843 24.89 6.9 44.5 60 -0.2 31.6
17:20 1014 29.94 843 24.89 6.9 44.4 59 -0.6 30.9
17:25 1014 29.94 843 24.89 7 44.5 58 -0.7 30.7
17:30 1014 29.94 843 24.89 7.1 44.7 57 -0.9 30.5
17:35 1014 29.94 843 24.89 6.9 44.4 59 -0.5 31.1
17:40 1014 29.94 843 24.89 6.9 44.4 58 -0.7 30.7
17:45 1014 29.94 843 24.89 7 44.5 57 -0.9 30.4
17:50 1014 29.94 843 24.89 7 44.7 57 -0.8 30.6
17:55 1014 29.94 843 24.89 7 44.7 59 -0.3 31.4
18:00 1014 29.94 843 24.89 7 44.6 59 -0.4 31.3
18:05 1013 29.91 843 24.89 7 44.6 60 -0.2 31.6
18:10 1013 29.91 843 24.89 7 44.6 61 -0 32
18:15 1013 29.91 843 24.89 7 44.5 60 -0.3 31.5
18:20 1013 29.91 843 24.89 7 44.5 63 0.3 32.6
18:25 1013 29.91 843 24.89 6.8 44.2 63 0.1 32.3
18:30 1013 29.91 843 24.89 6.6 43.9 62 -0.1 31.8
18:35 1013 29.91 843 24.89 6.6 43.8 61 -0.4 31.3
18:40 1013 29.91 843 24.89 6.7 44 59 -0.7 30.7
18:45 1014 29.94 843 24.89 6.8 44.3 57 -1 30.2
18:50 1014 29.94 843 24.89 6.9 44.5 58 -0.8 30.5
18:55 1014 29.94 843 24.89 6.9 44.4 56 -1.2 29.8
19:00 1014 29.94 843 24.89 6.9 44.5 56 -1.3 29.6
19:05 1014 29.94 843 24.89 6.9 44.5 57 -1.1 30
19:10 1014 29.94 843 24.89 6.8 44.2 57 -1.1 30
19:15 1014 29.94 843 24.89 6.6 43.9 59 -0.9 30.4
19:20 1014 29.94 844 24.92 6.5 43.8 59 -0.9 30.4
19:25 1014 29.94 844 24.92 6.5 43.7 60 -0.6 31
19:30 1015 29.97 844 24.92 6.5 43.7 62 -0.1 31.7
19:35 1015 29.97 844 24.92 6.3 43.3 64 0.1 32.2
19:40 1015 29.97 844 24.92 6 42.8 66 0.2 32.4
19:45 1015 29.97 844 24.92 5.8 42.4 66 -0.2 31.7
19:50 1015 29.97 844 24.92 5.7 42.3 66 -0.1 31.9
19:55 1015 29.97 844 24.92 5.7 42.3 66 -0.1 31.8
20:00 1015 29.97 844 24.92 5.9 42.6 62 -0.8 30.6
20:05 1015 29.97 845 24.95 6.1 43.1 61 -0.8 30.6
20:10 1015 29.97 845 24.95 6.3 43.3 60 -0.9 30.5
20:15 1015 29.97 845 24.95 6.3 43.3 61 -0.6 30.9
20:20 1015 29.97 845 24.95 6.1 43 62 -0.7 30.8
20:25 1016 30 845 24.95 6 42.8 62 -0.8 30.6
20:30 1016 30 845 24.95 5.9 42.7 62 -0.7 30.7
20:35 1016 30 845 24.95 5.9 42.5 62 -1 30.3
20:40 1016 30 845 24.95 5.8 42.4 62 -0.9 30.3
20:45 1016 30 845 24.95 5.6 42.1 64 -0.6 30.9
20:50 1016 30 845 24.95 5.4 41.7 64 -0.8 30.6
20:55 1016 30 845 24.95 5.4 41.7 62 -1.3 29.7
21:00 1016 30 845 24.95 5.4 41.8 60 -1.6 29.1
21:05 1016 30 845 24.95 5.4 41.8 60 -1.7 28.9
21:10 1016 30 845 24.95 5.4 41.8 59 -1.9 28.6
21:15 1016 30 845 24.95 5.4 41.8 59 -1.8 28.7
21:20 1016 30 846 24.98 5.4 41.8 59 -1.9 28.5
21:25 1016 30 846 24.98 5.4 41.8 58 -2.1 28.2
21:30 1017 30.03 846 24.98 5.5 41.9 58 -2.1 28.2
21:35 1017 30.03 846 24.98 5.3 41.6 59 -2 28.4
21:40 1017 30.03 846 24.98 5.2 41.4 59 -2.1 28.2
21:45 1017 30.03 846 24.98 5.3 41.5 58 -2.4 27.7
21:50 1017 30.03 846 24.98 5.4 41.7 58 -2.1 28.1
21:55 1017 30.03 846 24.98 5.3 41.5 58 -2.4 27.7
22:00 1017 30.03 846 24.98 5.3 41.6 57 -2.4 27.7
22:05 1017 30.03 846 24.98 5.4 41.7 56 -2.7 27.1
22:10 1017 30.03 846 24.98 5.4 41.6 56 -2.8 27
22:15 1017 30.03 846 24.98 5.3 41.5 56 -2.9 26.7
22:20 1017 30.03 846 24.98 5.2 41.4 56 -2.9 26.7
22:25 1017 30.03 846 24.98 5.1 41.1 56 -3 26.6
22:30 1017 30.03 846 24.98 4.9 40.8 57 -3 26.7
22:35 1017 30.03 846 24.98 4.7 40.5 57 -2.9 26.7
22:40 1017 30.03 846 24.98 4.6 40.3 58 -2.9 26.7
22:45 1017 30.03 846 24.98 4.6 40.3 58 -2.9 26.7
22:50 1017 30.03 847 25.01 4.7 40.5 58 -2.9 26.9
22:55 1018 30.06 847 25.01 4.7 40.5 58 -2.8 26.9
23:00 1018 30.06 847 25.01 4.7 40.5 58 -2.8 27
23:05 1018 30.06 847 25.01 4.7 40.5 58 -2.9 26.9
23:10 1018 30.06 847 25.01 4.8 40.6 58 -2.8 27
23:15 1018 30.06 847 25.01 4.7 40.5 58 -2.8 27
23:20 1018 30.06 847 25.01 4.7 40.5 58 -2.8 27
23:25 1018 30.06 847 25.01 4.5 40 62 -2.1 28.2
23:30 1018 30.06 847 25.01 3.7 38.6 65 -2.4 27.7
23:35 1018 30.06 848 25.04 3.6 38.5 63 -2.7 27.1
23:40 1018 30.06 848 25.04 3.9 39 61 -2.8 26.9
23:45 1018 30.06 848 25.04 4.1 39.4 61 -2.8 27
23:50 1018 30.06 848 25.04 4.3 39.7 60 -2.8 27
23:55 1018 30.06 848 25.04 4.3 39.7 60 -2.8 26.9
24:00 1018 30.06 847 25.01 4.3 39.7 60 -2.9 26.7